createdAt,value
2018-12-27T00:00:33.788Z,91.81
2018-12-27T00:03:02.825Z,91.36
2018-12-27T00:05:31.985Z,91.20
2018-12-27T00:08:01.205Z,91.49
2018-12-27T00:10:30.335Z,91.67
2018-12-27T00:12:59.341Z,91.81
2018-12-27T00:15:28.360Z,91.76
2018-12-27T00:17:57.521Z,91.51
2018-12-27T00:20:26.525Z,91.06
2018-12-27T00:22:55.562Z,91.16
2018-12-27T00:25:24.661Z,91.04
2018-12-27T00:27:53.589Z,91.18
2018-12-27T00:30:22.601Z,91.57
2018-12-27T00:32:51.700Z,91.61
2018-12-27T00:35:20.792Z,91.15
2018-12-27T00:37:49.809Z,91.01
2018-12-27T00:40:18.752Z,91.14
2018-12-27T00:42:48.070Z,91.10
2018-12-27T00:45:17.070Z,91.22
2018-12-27T00:47:46.136Z,91.22
2018-12-27T00:50:15.073Z,91.49
2018-12-27T00:52:44.169Z,90.83
2018-12-27T00:55:13.169Z,91.30
2018-12-27T00:57:42.090Z,91.00
2018-12-27T01:00:11.058Z,90.81
2018-12-27T01:02:40.176Z,91.44
2018-12-27T01:05:09.235Z,91.54
2018-12-27T01:07:38.342Z,91.52
2018-12-27T01:10:07.607Z,91.01
2018-12-27T01:12:36.705Z,91.70
2018-12-27T01:15:05.865Z,91.66
2018-12-27T01:17:34.896Z,91.33
2018-12-27T01:20:03.880Z,90.73
2018-12-27T01:22:32.850Z,91.52
2018-12-27T01:25:01.847Z,90.99
2018-12-27T01:27:30.899Z,91.59
2018-12-27T01:30:00.427Z,91.31
2018-12-27T01:32:29.439Z,91.24
2018-12-27T01:35:02.501Z,91.42
2018-12-27T01:37:31.567Z,90.91
2018-12-27T01:40:00.529Z,91.41
2018-12-27T01:42:29.550Z,91.39
2018-12-27T01:44:58.917Z,91.04
2018-12-27T01:47:28.098Z,91.13
2018-12-27T01:49:56.958Z,91.82
2018-12-27T01:52:26.077Z,91.55
2018-12-27T01:54:55.124Z,91.28
2018-12-27T01:57:24.275Z,91.09
2018-12-27T01:59:53.286Z,91.31
2018-12-27T02:02:25.484Z,91.44
2018-12-27T02:04:54.772Z,90.96
2018-12-27T02:07:23.877Z,91.08
2018-12-27T02:09:52.874Z,91.17
2018-12-27T02:12:21.928Z,91.61
2018-12-27T02:14:50.962Z,90.98
2018-12-27T02:17:19.857Z,91.06
2018-12-27T02:19:48.821Z,91.54
2018-12-27T02:22:17.790Z,91.58
2018-12-27T02:24:46.688Z,91.29
2018-12-27T02:27:15.580Z,91.08
2018-12-27T02:29:44.621Z,91.24
2018-12-27T02:32:13.641Z,92.17
2018-12-27T02:34:42.553Z,91.00
2018-12-27T02:37:11.656Z,91.10
2018-12-27T02:39:40.641Z,91.73
2018-12-27T02:42:09.580Z,92.12
2018-12-27T02:44:38.574Z,91.65
2018-12-27T02:47:07.477Z,92.20
2018-12-27T02:49:36.525Z,91.73
2018-12-27T02:52:05.458Z,91.47
2018-12-27T02:54:34.476Z,91.68
2018-12-27T02:57:03.469Z,91.36
2018-12-27T02:59:32.635Z,92.14
2018-12-27T03:02:01.659Z,91.75
2018-12-27T03:04:30.756Z,91.48
2018-12-27T03:06:59.767Z,92.10
2018-12-27T03:09:28.736Z,91.98
2018-12-27T03:11:57.730Z,91.68
2018-12-27T03:14:26.729Z,91.84
2018-12-27T03:16:55.897Z,92.55
2018-12-27T03:19:25.091Z,92.51
2018-12-27T03:21:54.035Z,92.38
2018-12-27T03:24:23.266Z,92.46
2018-12-27T03:26:52.093Z,92.07
2018-12-27T03:29:21.185Z,91.92
2018-12-27T03:31:50.081Z,92.01
2018-12-27T03:34:19.055Z,91.92
2018-12-27T03:36:48.116Z,92.88
2018-12-27T03:39:16.944Z,92.24
2018-12-27T03:41:45.885Z,93.20
2018-12-27T03:44:14.864Z,93.14
2018-12-27T03:46:43.682Z,93.13
2018-12-27T03:49:13.266Z,92.51
2018-12-27T03:51:42.100Z,92.55
2018-12-27T03:54:11.028Z,92.88
2018-12-27T03:56:40.034Z,92.53
2018-12-27T03:59:08.882Z,93.09
2018-12-27T04:01:37.947Z,92.45
2018-12-27T04:04:06.763Z,92.41
2018-12-27T04:06:35.778Z,93.08
2018-12-27T04:09:05.334Z,92.51
2018-12-27T04:11:34.163Z,92.50
2018-12-27T04:14:03.184Z,92.44
2018-12-27T04:16:32.162Z,92.97
2018-12-27T04:19:01.143Z,92.86
2018-12-27T04:21:30.113Z,92.68
2018-12-27T04:23:59.165Z,93.11
2018-12-27T04:26:30.206Z,92.84
2018-12-27T04:28:59.111Z,92.96
2018-12-27T04:31:28.388Z,93.30
2018-12-27T04:33:57.750Z,93.94
2018-12-27T04:36:26.907Z,93.75
2018-12-27T04:38:55.853Z,93.81
2018-12-27T04:41:24.749Z,93.06
2018-12-27T04:43:53.792Z,93.54
2018-12-27T04:46:22.763Z,94.23
2018-12-27T04:48:51.676Z,93.73
2018-12-27T04:51:20.952Z,94.22
2018-12-27T04:53:49.881Z,94.02
2018-12-27T04:56:18.826Z,94.41
2018-12-27T04:58:48.561Z,93.52
2018-12-27T05:01:17.534Z,93.78
2018-12-27T05:03:46.534Z,93.31
2018-12-27T05:06:15.448Z,93.36
2018-12-27T05:08:44.485Z,94.30
2018-12-27T05:11:13.314Z,93.60
2018-12-27T05:13:42.211Z,94.01
2018-12-27T05:16:11.092Z,94.09
2018-12-27T05:18:40.038Z,93.37
2018-12-27T05:21:09.035Z,93.44
2018-12-27T05:23:38.127Z,93.44
2018-12-27T05:26:07.055Z,94.02
2018-12-27T05:28:35.974Z,93.92
2018-12-27T05:31:05.015Z,93.88
2018-12-27T05:33:33.887Z,93.93
2018-12-27T05:36:02.879Z,93.21
2018-12-27T05:38:31.843Z,93.37
2018-12-27T05:41:00.860Z,93.62
2018-12-27T05:43:29.922Z,94.27
2018-12-27T05:45:58.934Z,93.48
2018-12-27T05:48:27.837Z,93.38
2018-12-27T05:50:56.819Z,94.42
2018-12-27T05:53:25.918Z,94.04
2018-12-27T05:55:55.071Z,94.45
2018-12-27T05:58:24.052Z,93.73
2018-12-27T06:00:52.992Z,94.67
2018-12-27T06:03:21.907Z,94.71
2018-12-27T06:05:51.819Z,94.10
2018-12-27T06:08:20.850Z,95.10
2018-12-27T06:10:49.821Z,95.77
2018-12-27T06:13:18.823Z,95.12
2018-12-27T06:15:47.771Z,95.10
2018-12-27T06:18:16.814Z,95.51
2018-12-27T06:20:45.794Z,95.72
2018-12-27T06:23:14.718Z,94.97
2018-12-27T06:25:43.758Z,94.96
2018-12-27T06:28:12.755Z,95.07
2018-12-27T06:30:41.669Z,95.78
2018-12-27T06:33:10.634Z,95.02
2018-12-27T06:35:39.614Z,95.71
2018-12-27T06:38:08.495Z,95.82
2018-12-27T06:40:37.371Z,95.56
2018-12-27T06:43:06.469Z,94.73
2018-12-27T06:45:35.611Z,94.52
2018-12-27T06:48:04.594Z,94.27
2018-12-27T06:50:33.454Z,94.82
2018-12-27T06:53:02.372Z,93.79
2018-12-27T06:55:31.234Z,93.55
2018-12-27T06:58:00.243Z,94.21
2018-12-27T07:00:29.356Z,93.47
2018-12-27T07:02:58.246Z,94.22
2018-12-27T07:05:27.190Z,93.14
2018-12-27T07:07:56.232Z,92.79
2018-12-27T07:10:25.182Z,92.91
2018-12-27T07:12:54.198Z,93.57
2018-12-27T07:15:25.046Z,92.78
2018-12-27T07:17:53.978Z,92.80
2018-12-27T07:20:22.967Z,93.58
2018-12-27T07:22:51.927Z,93.44
2018-12-27T07:25:20.890Z,93.17
2018-12-27T07:27:49.888Z,92.72
2018-12-27T07:30:18.927Z,92.59
2018-12-27T07:32:47.879Z,93.34
2018-12-27T07:35:16.739Z,93.55
2018-12-27T07:37:45.636Z,93.39
2018-12-27T07:40:14.630Z,93.38
2018-12-27T07:42:43.733Z,92.56
2018-12-27T07:45:12.566Z,92.68
2018-12-27T07:47:41.423Z,93.22
2018-12-27T07:50:10.755Z,93.34
2018-12-27T07:52:39.746Z,92.84
2018-12-27T07:55:08.802Z,92.91
2018-12-27T07:57:37.835Z,93.43
2018-12-27T08:00:07.087Z,92.77
2018-12-27T08:02:36.114Z,93.34
2018-12-27T08:05:05.135Z,93.10
2018-12-27T08:07:34.130Z,92.85
2018-12-27T08:10:03.139Z,92.46
2018-12-27T08:12:31.999Z,93.06
2018-12-27T08:15:05.018Z,92.84
2018-12-27T08:17:33.980Z,93.27
2018-12-27T08:20:03.095Z,92.54
2018-12-27T08:22:31.955Z,92.57
2018-12-27T08:25:00.899Z,92.95
2018-12-27T08:27:29.846Z,93.51
2018-12-27T08:29:58.842Z,93.56
2018-12-27T08:32:27.759Z,92.86
2018-12-27T08:34:56.779Z,93.47
2018-12-27T08:37:25.627Z,93.40
2018-12-27T08:39:54.638Z,93.54
2018-12-27T08:42:23.542Z,93.56
2018-12-27T08:44:52.557Z,92.92
2018-12-27T08:47:28.662Z,92.79
2018-12-27T08:50:01.110Z,92.90
2018-12-27T08:52:30.046Z,93.47
2018-12-27T08:54:58.971Z,93.27
2018-12-27T08:57:27.906Z,92.57
2018-12-27T08:59:56.846Z,93.46
2018-12-27T09:02:25.783Z,93.41
2018-12-27T09:04:54.667Z,92.70
2018-12-27T09:07:24.587Z,92.73
2018-12-27T09:09:53.618Z,92.69
2018-12-27T09:12:22.539Z,92.70
2018-12-27T09:14:51.459Z,92.95
2018-12-27T09:17:20.455Z,92.92
2018-12-27T09:19:49.547Z,92.84
2018-12-27T09:22:18.520Z,93.77
2018-12-27T09:24:47.428Z,93.77
2018-12-27T09:27:16.472Z,93.84
2018-12-27T09:29:45.363Z,93.75
2018-12-27T09:32:14.391Z,93.35
2018-12-27T09:34:43.304Z,93.90
2018-12-27T09:37:13.295Z,93.71
2018-12-27T09:39:42.192Z,93.22
2018-12-27T09:42:12.222Z,93.97
2018-12-27T09:44:41.463Z,92.99
2018-12-27T09:47:10.394Z,93.65
2018-12-27T09:49:39.272Z,93.64
2018-12-27T09:52:08.139Z,93.17
2018-12-27T09:54:37.095Z,93.21
2018-12-27T09:57:06.006Z,93.17
2018-12-27T09:59:35.014Z,93.06
2018-12-27T10:02:04.051Z,93.07
2018-12-27T10:04:33.074Z,93.04
2018-12-27T10:07:03.310Z,92.85
2018-12-27T10:09:32.354Z,93.60
2018-12-27T10:12:01.279Z,93.18
2018-12-27T10:14:30.163Z,93.12
2018-12-27T10:16:59.026Z,92.85
2018-12-27T10:19:28.074Z,91.65
2018-12-27T10:21:57.095Z,89.76
2018-12-27T10:24:26.047Z,89.09
2018-12-27T10:26:55.250Z,89.05
2018-12-27T10:29:24.282Z,88.54
2018-12-27T10:31:53.257Z,85.95
2018-12-27T10:34:22.224Z,82.05
2018-12-27T10:36:51.295Z,82.46
2018-12-27T10:39:20.347Z,83.44
2018-12-27T10:41:49.395Z,84.01
2018-12-27T10:44:18.327Z,82.50
2018-12-27T10:46:47.274Z,78.07
2018-12-27T10:49:16.436Z,79.42
2018-12-27T10:51:45.446Z,79.12
2018-12-27T10:54:14.421Z,77.85
2018-12-27T10:56:43.461Z,73.02
2018-12-27T10:59:12.357Z,72.99
2018-12-27T11:01:41.379Z,73.16
2018-12-27T11:04:10.280Z,72.77
2018-12-27T11:06:40.331Z,73.67
2018-12-27T11:09:09.598Z,72.14
2018-12-27T11:11:38.560Z,72.62
2018-12-27T11:14:07.538Z,73.34
2018-12-27T11:16:36.570Z,73.04
2018-12-27T11:19:05.596Z,72.12
2018-12-27T11:21:34.570Z,72.91
2018-12-27T11:24:03.446Z,72.89
2018-12-27T11:26:32.324Z,73.54
2018-12-27T11:29:02.340Z,72.75
2018-12-27T11:31:31.381Z,72.62
2018-12-27T11:34:01.504Z,73.21
2018-12-27T11:36:30.427Z,73.27
2018-12-27T11:39:01.430Z,71.00
2018-12-27T11:41:33.814Z,70.40
2018-12-27T11:44:02.805Z,71.35
2018-12-27T11:46:31.864Z,71.79
2018-12-27T11:49:01.007Z,71.23
2018-12-27T11:51:29.931Z,71.54
2018-12-27T11:53:58.846Z,71.20
2018-12-27T11:56:27.900Z,68.93
2018-12-27T11:59:06.358Z,69.51
2018-12-27T12:01:40.365Z,68.59
2018-12-27T12:04:12.605Z,68.36
2018-12-27T12:06:45.183Z,67.37
2018-12-27T12:09:14.236Z,67.71
2018-12-27T12:11:43.228Z,66.77
2018-12-27T12:14:12.187Z,65.66
2018-12-27T12:16:41.531Z,65.62
2018-12-27T12:19:10.479Z,66.28
2018-12-27T12:21:39.619Z,66.44
2018-12-27T12:24:08.567Z,65.82
2018-12-27T12:26:37.446Z,65.25
2018-12-27T12:29:07.264Z,65.73
2018-12-27T12:31:36.143Z,66.02
2018-12-27T12:34:05.195Z,66.08
2018-12-27T12:36:34.343Z,65.94
2018-12-27T12:39:07.606Z,65.68
2018-12-27T12:41:36.756Z,65.74
2018-12-27T12:44:05.735Z,66.58
2018-12-27T12:46:34.671Z,66.08
2018-12-27T12:49:07.770Z,66.13
2018-12-27T12:51:36.710Z,66.17
2018-12-27T12:54:05.728Z,65.83
2018-12-27T12:56:34.694Z,65.71
2018-12-27T12:59:07.739Z,65.59
2018-12-27T13:01:40.258Z,66.21
2018-12-27T13:04:09.342Z,66.06
2018-12-27T13:06:38.482Z,65.96
2018-12-27T13:09:17.464Z,66.53
2018-12-27T13:11:46.466Z,66.62
2018-12-27T13:14:15.442Z,66.55
2018-12-27T13:16:48.175Z,66.55
2018-12-27T13:19:17.307Z,65.96
2018-12-27T13:21:46.232Z,66.46
2018-12-27T13:24:15.179Z,66.05
2018-12-27T13:26:44.160Z,66.52
2018-12-27T13:29:13.143Z,66.25
2018-12-27T13:31:42.103Z,66.26
2018-12-27T13:34:11.043Z,66.68
2018-12-27T13:36:39.934Z,66.77
2018-12-27T13:39:09.954Z,67.26
2018-12-27T13:41:39.023Z,67.03
2018-12-27T13:44:08.035Z,66.93
2018-12-27T13:46:36.962Z,68.05
2018-12-27T13:49:06.023Z,67.55
2018-12-27T13:51:35.046Z,67.88
2018-12-27T13:54:04.110Z,68.25
2018-12-27T13:56:33.028Z,68.33
2018-12-27T13:59:02.031Z,68.60
2018-12-27T14:01:30.999Z,68.91
2018-12-27T14:04:00.316Z,68.58
2018-12-27T14:06:32.709Z,69.04
2018-12-27T14:09:00.114Z,68.17
2018-12-27T14:11:28.986Z,68.34
2018-12-27T14:13:57.875Z,68.60
2018-12-27T14:16:26.819Z,68.30
2018-12-27T14:18:55.754Z,68.93
2018-12-27T14:21:24.871Z,69.00
2018-12-27T14:23:53.785Z,69.03
2018-12-27T14:26:22.630Z,69.98
2018-12-27T14:28:51.535Z,69.50
2018-12-27T14:31:20.353Z,69.95
2018-12-27T14:33:49.355Z,70.13
2018-12-27T14:36:18.232Z,69.24
2018-12-27T14:38:47.282Z,70.21
2018-12-27T14:41:16.254Z,69.36
2018-12-27T14:45:52.927Z,70.42
2018-12-27T14:48:21.894Z,70.55
2018-12-27T14:50:50.834Z,70.37
2018-12-27T14:53:19.715Z,70.59
2018-12-27T14:55:49.603Z,71.23
2018-12-27T14:58:18.587Z,71.31
2018-12-27T15:00:47.482Z,71.48
2018-12-27T15:03:16.306Z,71.08
2018-12-27T15:05:45.143Z,71.67
2018-12-27T15:08:14.083Z,71.85
2018-12-27T15:10:42.926Z,71.61
2018-12-27T15:13:11.783Z,72.35
2018-12-27T15:15:40.647Z,72.41
2018-12-27T15:18:09.515Z,72.25
2018-12-27T15:20:38.514Z,72.97
2018-12-27T15:23:07.414Z,72.57
2018-12-27T15:25:36.356Z,73.29
2018-12-27T15:28:05.268Z,73.40
2018-12-27T15:30:34.195Z,73.08
2018-12-27T15:33:03.039Z,73.40
2018-12-27T15:35:32.035Z,73.50
2018-12-27T15:38:01.011Z,73.56
2018-12-27T15:40:29.983Z,73.87
2018-12-27T15:42:58.923Z,74.11
2018-12-27T15:45:27.883Z,75.03
2018-12-27T15:47:56.841Z,75.13
2018-12-27T15:50:26.076Z,75.76
2018-12-27T15:52:56.887Z,75.34
2018-12-27T15:55:25.875Z,75.93
2018-12-27T15:57:54.687Z,76.62
2018-12-27T16:00:23.628Z,76.48
2018-12-27T16:02:52.630Z,76.61
2018-12-27T16:05:21.579Z,76.64
2018-12-27T16:07:50.500Z,76.40
2018-12-27T16:10:19.539Z,76.30
2018-12-27T16:12:48.476Z,76.98
2018-12-27T16:15:17.369Z,76.96
2018-12-27T16:17:46.347Z,77.16
2018-12-27T16:20:15.760Z,76.86
2018-12-27T16:22:44.685Z,77.32
2018-12-27T16:25:13.759Z,77.80
2018-12-27T16:27:42.764Z,77.12
2018-12-27T16:30:12.143Z,77.55
2018-12-27T16:32:41.182Z,77.90
2018-12-27T16:35:10.363Z,77.43
2018-12-27T16:37:39.588Z,77.37
2018-12-27T16:40:09.390Z,77.57
2018-12-27T16:42:38.935Z,77.58
2018-12-27T16:45:08.215Z,78.69
2018-12-27T16:47:37.440Z,78.82
2018-12-27T16:50:07.687Z,78.62
2018-12-27T16:52:36.811Z,78.53
2018-12-27T16:55:05.781Z,78.06
2018-12-27T16:57:34.754Z,78.34
2018-12-27T17:00:04.013Z,78.21
2018-12-27T17:02:33.200Z,78.49
2018-12-27T17:05:02.303Z,78.05
2018-12-27T17:07:31.423Z,78.88
2018-12-27T17:10:01.492Z,78.93
2018-12-27T17:12:30.655Z,79.09
2018-12-27T17:14:59.766Z,78.58
2018-12-27T17:17:28.814Z,79.03
2018-12-27T17:19:57.962Z,78.89
2018-12-27T17:22:27.260Z,78.83
2018-12-27T17:24:56.363Z,79.49
2018-12-27T17:27:29.531Z,79.27
2018-12-27T17:29:58.586Z,79.18
2018-12-27T17:32:27.595Z,79.37
2018-12-27T17:34:57.032Z,79.39
2018-12-27T17:37:26.293Z,79.36
2018-12-27T17:39:55.583Z,79.15
2018-12-27T17:42:24.782Z,78.91
2018-12-27T17:44:54.029Z,78.94
2018-12-27T17:47:23.335Z,78.98
2018-12-27T17:49:53.754Z,79.01
2018-12-27T17:52:30.015Z,79.04
2018-12-27T17:54:54.603Z,78.99
2018-12-27T17:57:23.899Z,79.38
2018-12-27T17:59:53.327Z,79.79
2018-12-27T18:02:22.500Z,79.37
2018-12-27T18:04:51.953Z,80.05
2018-12-27T18:07:21.238Z,79.39
2018-12-27T18:09:51.595Z,79.43
2018-12-27T18:12:21.079Z,80.30
2018-12-27T18:14:59.533Z,79.89
2018-12-27T18:17:28.935Z,80.80
2018-12-27T18:19:58.434Z,80.21
2018-12-27T18:22:27.658Z,80.90
2018-12-27T18:24:57.089Z,80.39
2018-12-27T18:27:26.475Z,80.77
2018-12-27T18:29:56.976Z,81.29
2018-12-27T18:32:26.333Z,81.48
2018-12-27T18:34:55.667Z,81.42
2018-12-27T18:37:25.039Z,81.80
2018-12-27T18:39:54.367Z,81.99
2018-12-27T18:42:23.738Z,82.29
2018-12-27T18:44:53.210Z,81.63
2018-12-27T18:47:22.608Z,82.59
2018-12-27T18:50:00.838Z,82.36
2018-12-27T18:52:33.975Z,82.82
2018-12-27T18:55:06.974Z,83.07
2018-12-27T18:57:40.259Z,82.85
2018-12-27T19:00:13.379Z,82.55
2018-12-27T19:02:46.290Z,83.18
2018-12-27T19:05:19.151Z,83.72
2018-12-27T19:07:52.107Z,83.19
2018-12-27T19:10:25.079Z,84.02
2018-12-27T19:13:10.357Z,83.87
2018-12-27T19:15:47.426Z,83.52
2018-12-27T19:18:31.843Z,83.79
2018-12-27T19:21:14.171Z,84.30
2018-12-27T19:23:47.551Z,84.40
2018-12-27T19:26:20.363Z,84.00
2018-12-27T19:28:53.847Z,84.56
2018-12-27T19:31:26.758Z,84.97
2018-12-27T19:33:59.451Z,84.70
2018-12-27T19:36:32.327Z,84.51
2018-12-27T19:39:07.057Z,84.81
2018-12-27T19:41:40.055Z,85.20
2018-12-27T19:44:12.955Z,84.55
2018-12-27T19:46:46.023Z,84.81
2018-12-27T19:49:18.995Z,85.11
2018-12-27T19:51:52.110Z,84.77
2018-12-27T19:54:31.757Z,84.99
2018-12-27T19:57:00.682Z,85.49
2018-12-27T19:59:33.786Z,84.96
2018-12-27T20:02:06.837Z,85.72
2018-12-27T20:04:39.851Z,85.35
2018-12-27T20:07:12.731Z,85.45
2018-12-27T20:09:46.167Z,85.55
2018-12-27T20:12:19.198Z,86.12
2018-12-27T20:14:52.373Z,85.50
2018-12-27T20:17:25.170Z,85.84
2018-12-27T20:19:59.141Z,86.06
2018-12-27T20:22:32.287Z,85.48
2018-12-27T20:25:06.391Z,85.54
2018-12-27T20:27:39.345Z,85.64
2018-12-27T20:30:12.320Z,85.81
2018-12-27T20:32:48.979Z,86.52
2018-12-27T20:35:21.896Z,85.88
2018-12-27T20:37:54.955Z,86.10
2018-12-27T20:40:27.923Z,86.56
2018-12-27T20:43:00.915Z,86.22
2018-12-27T20:45:34.098Z,86.40
2018-12-27T20:48:07.196Z,86.04
2018-12-27T20:50:40.161Z,85.94
2018-12-27T20:53:14.243Z,86.61
2018-12-27T20:55:47.603Z,86.51
2018-12-27T20:58:20.499Z,86.10
2018-12-27T21:00:53.678Z,86.45
2018-12-27T21:03:27.027Z,86.21
2018-12-27T21:05:59.727Z,86.65
2018-12-27T21:08:32.787Z,86.39
2018-12-27T21:11:05.839Z,86.27
2018-12-27T21:13:38.883Z,86.12
2018-12-27T21:16:12.043Z,86.37
2018-12-27T21:18:45.084Z,86.42
2018-12-27T21:21:19.120Z,86.66
2018-12-27T21:23:51.947Z,86.32
2018-12-27T21:26:28.979Z,86.92
2018-12-27T21:29:01.659Z,87.21
2018-12-27T21:31:34.717Z,87.21
2018-12-27T21:34:08.275Z,87.25
2018-12-27T21:36:40.861Z,86.58
2018-12-27T21:39:13.885Z,87.08
2018-12-27T21:41:47.164Z,87.13
2018-12-27T21:44:20.862Z,86.80
2018-12-27T21:46:54.335Z,87.16
2018-12-27T21:49:28.319Z,87.30
2018-12-27T21:52:01.382Z,87.01
2018-12-27T21:54:34.174Z,87.85
2018-12-27T21:57:07.418Z,87.96
2018-12-27T21:59:41.107Z,87.62
2018-12-27T22:02:14.326Z,87.99
2018-12-27T22:04:51.761Z,87.55
2018-12-27T22:07:25.259Z,87.36
2018-12-27T22:09:58.278Z,88.18
2018-12-27T22:12:31.055Z,87.32
2018-12-27T22:15:03.826Z,87.44
2018-12-27T22:17:36.743Z,88.06
2018-12-27T22:20:09.647Z,87.73
2018-12-27T22:22:42.787Z,87.71
2018-12-27T22:25:15.959Z,87.83
2018-12-27T22:27:49.174Z,87.91
2018-12-27T22:30:21.936Z,88.44
2018-12-27T22:32:58.992Z,88.90
2018-12-27T22:35:31.702Z,88.42
2018-12-27T22:38:05.059Z,88.56
2018-12-27T22:40:37.583Z,88.79
2018-12-27T22:43:10.687Z,89.35
2018-12-27T22:45:43.818Z,88.51
2018-12-27T22:48:16.926Z,88.80
2018-12-27T22:50:49.922Z,89.40
2018-12-27T22:53:22.979Z,89.70
2018-12-27T22:55:57.468Z,88.80
2018-12-27T22:58:31.087Z,89.12
2018-12-27T23:01:03.847Z,89.81
2018-12-27T23:03:36.875Z,89.83
2018-12-27T23:06:09.738Z,89.30
2018-12-27T23:08:43.427Z,90.01
2018-12-27T23:11:17.199Z,89.61
2018-12-27T23:13:49.881Z,90.10
2018-12-27T23:16:22.238Z,90.30
2018-12-27T23:18:55.094Z,89.52
2018-12-27T23:21:31.193Z,89.93
2018-12-27T23:24:04.271Z,90.15
2018-12-27T23:26:36.939Z,89.93
2018-12-27T23:29:10.002Z,90.65
2018-12-27T23:31:42.243Z,90.16
2018-12-27T23:34:15.172Z,90.26
2018-12-27T23:36:48.215Z,90.94
2018-12-27T23:39:20.478Z,90.35
2018-12-27T23:41:53.431Z,91.00
2018-12-27T23:44:26.355Z,91.23
2018-12-27T23:46:59.275Z,90.49
2018-12-27T23:49:32.270Z,91.08
2018-12-27T23:52:03.168Z,90.66
2018-12-27T23:54:39.295Z,90.92
2018-12-27T23:57:11.579Z,90.72
2018-12-27T23:59:44.710Z,91.44
